Weather reports worldwide

Advertisment
Tarifa, Spain (8458): temperature & dewpoint: 10.09.2019 17:00:00 - 16.09.2019 17:00:00 (CEST)Tarifa, Spain (8458): wind speed & gusts: 10.09.2019 17:00:00 - 16.09.2019 17:00:00 (CEST)Tarifa, Spain (8458): wind direction: 10.09.2019 17:00:00 - 16.09.2019 17:00:00 (CEST)Tarifa, Spain (8458): reduced air pressure: 10.09.2019 17:00:00 - 16.09.2019 17:00:00 (CEST)Tarifa, Spain (8458): precipitation: 10.09.2019 17:00:00 - 16.09.2019 17:00:00 (CEST)
Date & Time tt [°C] td [°C] ff [km/h] ff [kn] fx [km/h] fx [kn] dd ppp [hPa] rr [mm]
16.09.2019 17:00:00 - - - - - - - - -
16.09.2019 16:00:00 23,3 18,2 25 13 41 22 E 1015,9 0,0
16.09.2019 15:00:00 22,6 18,8 27 15 38 21 E 1016,5 0,0
16.09.2019 14:00:00 22,2 18,6 22 12 34 18 E 1017,3 -
16.09.2019 13:00:00 22,0 18,6 20 11 31 17 E 1018,1 0,0
16.09.2019 12:00:00 20,9 18,7 20 11 27 15 E 1018,2 0,0
16.09.2019 11:00:00 20,1 18,2 16 9 22 12 E 1018,2 0,0
16.09.2019 10:00:00 19,4 18,1 11 6 21 11 ENE 1017,9 0,0
16.09.2019 09:00:00 17,6 17,5 6 3 13 7 E 1017,6 0,0
16.09.2019 08:00:00 16,3 16,0 4 2 7 4 ESE 1017,3 -
16.09.2019 07:00:00 15,0 14,8 3 2 7 4 E 1017,1 0,0
16.09.2019 06:00:00 16,2 15,9 3 2 4 2 N 1017,0 0,0
16.09.2019 05:00:00 16,9 16,6 0 0 6 3 N 1016,9 0,0
16.09.2019 04:00:00 17,8 17,1 1 1 8 5 W 1017,3 0,0
16.09.2019 03:00:00 17,6 16,6 2 1 6 3 NW 1017,6 0,0
16.09.2019 02:00:00 18,4 17,2 1 1 9 5 NW 1018,0 -
16.09.2019 01:00:00 18,5 17,4 6 3 10 5 NNW 1018,3 0,0
16.09.2019 00:00:00 19,0 17,9 5 3 9 5 WNW 1018,0 0,0
15.09.2019 23:00:00 19,4 17,7 4 2 14 7 NW 1018,0 0,0
15.09.2019 22:00:00 19,6 17,9 4 2 14 8 WNW 1017,5 0,0
15.09.2019 21:00:00 19,9 17,7 10 5 19 11 W 1016,6 0,0
15.09.2019 20:00:00 20,9 17,7 12 7 22 12 WNW 1016,5 -
15.09.2019 19:00:00 21,7 17,5 12 6 20 11 WNW 1016,3 0,0
15.09.2019 18:00:00 21,8 17,8 16 8 21 12 W 1016,3 0,0
15.09.2019 17:00:00 22,2 18,0 14 7 22 12 W 1016,4 0,0
15.09.2019 16:00:00 22,0 18,0 14 7 23 12 W 1017,0 0,0
15.09.2019 15:00:00 21,4 17,6 18 10 25 14 W 1017,2 0,0
15.09.2019 14:00:00 21,3 18,5 17 9 29 16 W 1017,9 -
15.09.2019 13:00:00 21,1 18,3 18 10 26 14 W 1018,1 0,0
15.09.2019 12:00:00 20,6 18,0 13 7 22 12 WNW 1018,0 0,0
15.09.2019 11:00:00 19,7 18,0 11 6 18 10 W 1017,6 0,0
15.09.2019 10:00:00 19,0 17,9 9 5 17 9 WNW 1017,2 0,0
15.09.2019 09:00:00 18,9 17,9 11 6 18 10 WNW 1016,7 0,0
15.09.2019 08:00:00 19,1 17,8 5 3 18 10 W 1016,5 -
15.09.2019 07:00:00 21,3 20,7 11 6 23 13 ENE 1016,1 0,0
15.09.2019 06:00:00 21,3 20,7 15 8 29 15 ENE 1015,8 0,0
15.09.2019 05:00:00 21,5 20,5 15 8 27 15 E 1015,8 0,0
15.09.2019 04:00:00 21,5 20,5 17 9 33 18 E 1015,9 0,0
15.09.2019 03:00:00 21,5 20,5 21 11 35 19 ENE 1016,2 0,0
15.09.2019 02:00:00 21,7 20,5 22 12 38 21 ENE 1016,3 -
15.09.2019 01:00:00 21,7 20,3 24 13 40 22 ENE 1016,6 0,0
15.09.2019 00:00:00 21,6 20,1 28 15 45 24 ENE 1016,4 0,0
14.09.2019 23:00:00 21,4 20,1 28 15 43 23 ENE 1016,4 0,0
14.09.2019 22:00:00 21,5 20,0 26 14 43 23 E 1016,0 0,0
14.09.2019 21:00:00 21,8 19,9 27 15 46 25 ENE 1015,7 0,0
14.09.2019 20:00:00 21,9 19,4 30 16 49 26 ENE 1014,8 -
14.09.2019 19:00:00 22,7 19,5 31 17 48 26 ENE 1014,6 0,0
14.09.2019 18:00:00 23,3 19,3 31 17 56 31 E 1014,5 0,0
14.09.2019 17:00:00 23,9 19,4 34 18 52 28 E 1014,5 0,0
14.09.2019 16:00:00 24,1 19,2 34 18 50 27 E 1014,9 0,0
14.09.2019 15:00:00 23,3 19,1 34 18 55 30 E 1015,5 0,0
14.09.2019 14:00:00 23,0 18,8 29 16 54 29 ENE 1016,1 -
14.09.2019 13:00:00 23,1 18,8 32 17 54 29 ENE 1016,3 0,0
14.09.2019 12:00:00 23,0 18,8 32 17 53 28 ENE 1016,3 0,0
14.09.2019 11:00:00 22,5 18,5 28 15 45 25 ENE 1016,3 0,0
14.09.2019 10:00:00 21,7 18,7 24 13 43 23 ENE 1016,1 0,0
14.09.2019 09:00:00 21,5 19,3 26 14 44 24 ENE 1015,8 0,0
14.09.2019 08:00:00 21,0 19,3 24 13 44 24 ENE 1015,4 -
14.09.2019 07:00:00 21,0 19,5 25 13 42 23 ENE 1015,1 0,0
14.09.2019 06:00:00 21,1 19,4 29 15 48 26 ENE 1014,7 0,0
14.09.2019 05:00:00 21,7 19,3 22 12 42 23 ENE 1014,9 0,0
14.09.2019 04:00:00 21,6 18,8 23 13 40 22 ENE 1015,2 0,0
14.09.2019 03:00:00 21,5 19,3 23 12 41 22 ENE 1015,6 0,0
14.09.2019 02:00:00 21,9 19,1 23 13 49 27 ENE 1016,4 -
14.09.2019 01:00:00 22,3 19,1 29 15 52 28 ENE 1016,7 0,0
14.09.2019 00:00:00 22,2 19,0 28 15 47 25 ENE 1016,8 0,0
13.09.2019 23:00:00 22,4 19,0 29 16 48 26 ENE 1016,6 0,0
13.09.2019 22:00:00 22,1 18,9 31 17 51 27 ENE 1016,5 0,0
13.09.2019 21:00:00 21,8 18,2 29 16 50 27 ENE 1015,7 0,0
13.09.2019 20:00:00 22,0 18,0 32 17 55 30 ENE 1015,8 -
13.09.2019 19:00:00 22,2 18,0 31 17 52 28 ENE 1015,6 0,0
13.09.2019 18:00:00 22,4 17,8 34 19 50 27 E 1015,4 0,0
13.09.2019 17:00:00 23,1 17,8 31 17 59 32 E 1015,4 0,0
13.09.2019 16:00:00 22,7 17,6 40 22 58 31 ENE 1015,6 0,0
13.09.2019 15:00:00 23,4 18,1 33 18 49 27 E 1016,1 0,0
13.09.2019 14:00:00 23,3 17,5 30 16 48 26 E 1016,6 -
13.09.2019 13:00:00 23,1 17,5 31 17 59 32 E 1016,6 0,0
13.09.2019 12:00:00 22,2 17,5 29 16 49 27 E 1017,0 0,0
13.09.2019 11:00:00 21,1 17,7 26 14 50 27 ENE 1016,6 0,0
13.09.2019 10:00:00 20,4 17,2 28 15 43 23 E 1016,1 0,0
13.09.2019 09:00:00 19,6 16,6 27 14 44 24 ENE 1016,2 0,0
13.09.2019 08:00:00 19,5 16,1 27 15 38 20 ENE 1016,6 -
13.09.2019 07:00:00 19,4 16,0 22 12 34 18 ENE 1016,1 0,0
13.09.2019 06:00:00 19,3 16,0 21 11 31 17 ENE 1016,5 0,0
13.09.2019 05:00:00 18,9 15,8 14 7 27 14 ENE 1017,3 0,0
13.09.2019 04:00:00 18,8 15,7 13 7 33 18 ENE 1017,7 0,0
13.09.2019 03:00:00 19,1 15,5 22 12 40 22 ENE 1017,9 0,0
13.09.2019 02:00:00 18,8 15,9 22 12 34 19 ENE 1018,5 -
13.09.2019 01:00:00 18,8 15,9 19 10 50 27 ENE 1019,1 0,0
13.09.2019 00:00:00 18,6 16,2 21 11 29 16 E 1019,7 0,0
12.09.2019 23:00:00 18,5 16,1 13 7 22 12 ENE 1020,3 0,0
12.09.2019 22:00:00 18,7 16,1 11 6 18 10 E 1020,0 0,0
12.09.2019 21:00:00 18,9 15,5 13 7 24 13 ENE 1019,3 0,0
12.09.2019 20:00:00 20,1 16,6 14 7 38 21 ENE 1019,5 -
12.09.2019 19:00:00 21,0 16,2 23 13 41 22 ENE 1019,5 0,0
12.09.2019 18:00:00 21,8 16,6 29 16 47 25 ENE 1019,3 0,0
12.09.2019 17:00:00 22,3 15,9 27 14 40 22 ENE 1019,3 0,0
12.09.2019 16:00:00 21,8 16,7 25 14 39 21 E 1019,3 0,0
12.09.2019 15:00:00 22,1 15,9 24 13 38 21 E 1019,8 0,0
12.09.2019 14:00:00 21,1 15,9 23 13 33 18 E 1020,0 -
12.09.2019 13:00:00 20,7 16,3 18 10 30 16 ENE 1020,3 0,0
12.09.2019 12:00:00 20,5 14,6 14 8 27 14 ENE 1020,2 0,0
12.09.2019 11:00:00 21,4 14,8 15 8 29 15 E 1019,6 0,0
12.09.2019 10:00:00 20,4 15,0 15 8 22 12 E 1019,2 0,0
12.09.2019 09:00:00 18,5 14,4 10 5 20 11 NE 1018,4 0,0
12.09.2019 08:00:00 18,4 14,3 10 6 29 15 NE 1018,2 -
12.09.2019 07:00:00 18,4 14,5 19 10 36 20 ENE 1017,8 0,0
12.09.2019 06:00:00 18,5 15,2 22 12 34 18 E 1017,1 0,0
12.09.2019 05:00:00 18,9 15,0 17 9 45 25 ENE 1017,6 0,0
12.09.2019 04:00:00 19,7 16,1 30 16 45 24 ENE 1017,7 0,0
12.09.2019 03:00:00 20,0 13,5 23 12 39 21 ENE 1018,0 0,0
12.09.2019 02:00:00 20,3 11,2 21 11 37 20 ENE 1018,2 -
12.09.2019 01:00:00 21,2 12,6 5 3 15 8 N 1018,0 0,0
12.09.2019 00:00:00 21,5 10,9 13 7 22 12 NNW 1017,7 0,0
11.09.2019 23:00:00 18,8 8,1 6 3 9 5 NNE 1017,8 0,0
11.09.2019 22:00:00 20,0 8,0 6 3 11 6 NNE 1017,2 0,0
11.09.2019 21:00:00 21,5 8,4 10 5 17 9 ENE 1016,6 0,0
11.09.2019 20:00:00 22,1 11,4 10 6 16 8 E 1016,4 -
11.09.2019 19:00:00 24,5 11,1 4 2 12 7 W 1015,8 0,0
11.09.2019 18:00:00 23,3 12,6 7 4 20 11 W 1015,7 0,0
11.09.2019 17:00:00 21,7 16,2 11 6 25 13 W 1016,0 0,0
11.09.2019 16:00:00 22,6 16,4 14 8 29 16 WSW 1016,1 0,0
11.09.2019 15:00:00 21,9 15,7 17 9 31 17 WSW 1016,3 0,0
11.09.2019 14:00:00 21,3 16,0 21 12 32 17 WSW 1017,0 -
11.09.2019 13:00:00 21,4 15,4 20 11 30 16 WSW 1017,4 0,0
11.09.2019 12:00:00 21,0 16,0 18 10 29 16 WSW 1017,5 0,0
11.09.2019 11:00:00 20,8 16,0 10 6 19 11 WSW 1018,1 0,0
11.09.2019 10:00:00 18,7 15,0 10 5 19 10 WNW 1017,3 0,0
11.09.2019 09:00:00 17,0 14,2 6 4 18 10 NNW 1016,9 0,0
11.09.2019 08:00:00 16,8 13,9 10 6 16 9 NW 1016,6 -
11.09.2019 07:00:00 16,6 13,9 10 5 13 7 NNW 1016,0 0,0
11.09.2019 06:00:00 16,9 13,9 10 5 15 8 NW 1015,4 0,0
11.09.2019 05:00:00 17,0 13,8 9 5 16 8 NW 1015,3 0,0
11.09.2019 04:00:00 17,1 13,7 9 5 19 10 NW 1016,3 0,0
11.09.2019 03:00:00 17,9 14,4 9 5 19 10 W 1016,5 0,0
11.09.2019 02:00:00 18,1 14,8 11 6 25 14 WNW 1016,7 -
11.09.2019 01:00:00 18,4 14,7 18 10 27 14 SW 1016,8 0,0
11.09.2019 00:00:00 18,4 15,1 17 9 29 15 SW 1016,7 0,0
10.09.2019 23:00:00 19,0 14,7 18 10 33 18 SW 1016,7 0,0
10.09.2019 22:00:00 19,2 15,4 24 13 34 19 WSW 1016,4 0,0
10.09.2019 21:00:00 19,6 15,9 14 8 28 15 WSW 1016,0 0,0
10.09.2019 20:00:00 20,8 14,9 16 9 33 18 WSW 1015,5 -
10.09.2019 19:00:00 21,5 15,3 19 10 37 20 W 1014,9 0,0
10.09.2019 18:00:00 21,5 15,6 22 12 42 23 W 1015,2 0,0
10.09.2019 17:00:00 21,1 14,7 31 17 48 26 W 1015,3 0,0

tt = temperature
td = dewpoint
ff = wind speed
fx = gusts
dd = wind direction
ppp = reduced air pressure
rr = precipitation

Next stations